sensor_id;sensor_type;location;lat;lon;timestamp;P1;P2;P0
77538;PMS7003;67783;51.656;16.106;2023-03-23T00:00:48;1;1;1
77538;PMS7003;67783;51.656;16.106;2023-03-23T00:03:50;1;1;1
77538;PMS7003;67783;51.656;16.106;2023-03-23T00:06:54;0;0;0
77538;PMS7003;67783;51.656;16.106;2023-03-23T00:10:05;0;0;0
77538;PMS7003;67783;51.656;16.106;2023-03-23T00:13:07;0;0;0
77538;PMS7003;67783;51.656;16.106;2023-03-23T00:16:12;3;0;0
77538;PMS7003;67783;51.656;16.106;2023-03-23T00:19:20;1;1;1
77538;PMS7003;67783;51.656;16.106;2023-03-23T00:22:22;1;1;1
77538;PMS7003;67783;51.656;16.106;2023-03-23T00:25:27;1;1;0
77538;PMS7003;67783;51.656;16.106;2023-03-23T00:28:29;2;1;1
77538;PMS7003;67783;51.656;16.106;2023-03-23T00:31:31;3;1;1
77538;PMS7003;67783;51.656;16.106;2023-03-23T00:34:35;1;1;0
77538;PMS7003;67783;51.656;16.106;2023-03-23T00:37:40;1;1;1
77538;PMS7003;67783;51.656;16.106;2023-03-23T00:40:48;1;1;1
77538;PMS7003;67783;51.656;16.106;2023-03-23T00:43:50;1;0;0
77538;PMS7003;67783;51.656;16.106;2023-03-23T00:46:52;1;1;0
77538;PMS7003;67783;51.656;16.106;2023-03-23T00:50:01;4;1;1
77538;PMS7003;67783;51.656;16.106;2023-03-23T00:53:03;1;1;0
77538;PMS7003;67783;51.656;16.106;2023-03-23T00:56:08;2;2;1
77538;PMS7003;67783;51.656;16.106;2023-03-23T00:59:11;1;1;1
77538;PMS7003;67783;51.656;16.106;2023-03-23T01:02:13;2;2;1
77538;PMS7003;67783;51.656;16.106;2023-03-23T01:05:17;2;2;2
77538;PMS7003;67783;51.656;16.106;2023-03-23T01:08:19;1;1;1
77538;PMS7003;67783;51.656;16.106;2023-03-23T01:11:29;0;0;0
77538;PMS7003;67783;51.656;16.106;2023-03-23T01:14:31;2;2;1
77538;PMS7003;67783;51.656;16.106;2023-03-23T01:17:32;0;0;0
77538;PMS7003;67783;51.656;16.106;2023-03-23T01:20:34;6;1;0
77538;PMS7003;67783;51.656;16.106;2023-03-23T01:23:37;0;0;0
77538;PMS7003;67783;51.656;16.106;2023-03-23T01:26:49;1;1;1
77538;PMS7003;67783;51.656;16.106;2023-03-23T01:29:51;1;1;1
77538;PMS7003;67783;51.656;16.106;2023-03-23T01:32:53;2;1;1
77538;PMS7003;67783;51.656;16.106;2023-03-23T01:35:56;1;1;0
77538;PMS7003;67783;51.656;16.106;2023-03-23T01:39:03;1;1;1
77538;PMS7003;67783;51.656;16.106;2023-03-23T01:42:10;1;0;0
77538;PMS7003;67783;51.656;16.106;2023-03-23T01:48:33;0;0;0
77538;PMS7003;67783;51.656;16.106;2023-03-23T01:51:43;0;0;0
77538;PMS7003;67783;51.656;16.106;2023-03-23T01:54:53;1;1;1
77538;PMS7003;67783;51.656;16.106;2023-03-23T01:57:57;0;0;0
77538;PMS7003;67783;51.656;16.106;2023-03-23T02:01:05;0;0;0
77538;PMS7003;67783;51.656;16.106;2023-03-23T02:04:13;0;0;0
77538;PMS7003;67783;51.656;16.106;2023-03-23T02:07:18;2;1;1
77538;PMS7003;67783;51.656;16.106;2023-03-23T02:10:30;0;0;0
77538;PMS7003;67783;51.656;16.106;2023-03-23T02:13:33;1;1;1
77538;PMS7003;67783;51.656;16.106;2023-03-23T02:23:15;0;0;0
77538;PMS7003;67783;51.656;16.106;2023-03-23T02:39:28;0;0;0
77538;PMS7003;67783;51.656;16.106;2023-03-23T02:42:37;0;0;0
77538;PMS7003;67783;51.656;16.106;2023-03-23T02:45:43;0;0;0
77538;PMS7003;67783;51.656;16.106;2023-03-23T02:48:46;0;0;0
77538;PMS7003;67783;51.656;16.106;2023-03-23T02:51:58;0;0;0
77538;PMS7003;67783;51.656;16.106;2023-03-23T02:55:02;0;0;0
77538;PMS7003;67783;51.656;16.106;2023-03-23T02:58:05;0;0;0
77538;PMS7003;67783;51.656;16.106;2023-03-23T03:04:18;0;0;0
77538;PMS7003;67783;51.656;16.106;2023-03-23T03:07:30;0;0;0
77538;PMS7003;67783;51.656;16.106;2023-03-23T03:10:40;0;0;0
77538;PMS7003;67783;51.656;16.106;2023-03-23T03:20:27;0;0;0
77538;PMS7003;67783;51.656;16.106;2023-03-23T03:23:31;0;0;0
77538;PMS7003;67783;51.656;16.106;2023-03-23T03:26:35;0;0;0
77538;PMS7003;67783;51.656;16.106;2023-03-23T03:29:39;1;0;0
77538;PMS7003;67783;51.656;16.106;2023-03-23T03:32:46;0;0;0
77538;PMS7003;67783;51.656;16.106;2023-03-23T03:35:54;0;0;0
77538;PMS7003;67783;51.656;16.106;2023-03-23T03:38:57;0;0;0
77538;PMS7003;67783;51.656;16.106;2023-03-23T03:42:00;0;0;0
77538;PMS7003;67783;51.656;16.106;2023-03-23T03:45:03;0;0;0
77538;PMS7003;67783;51.656;16.106;2023-03-23T03:48:05;0;0;0
77538;PMS7003;67783;51.656;16.106;2023-03-23T03:51:09;0;0;0
77538;PMS7003;67783;51.656;16.106;2023-03-23T03:54:11;0;0;0
77538;PMS7003;67783;51.656;16.106;2023-03-23T03:57:13;1;1;0
77538;PMS7003;67783;51.656;16.106;2023-03-23T04:00:15;0;0;0
77538;PMS7003;67783;51.656;16.106;2023-03-23T04:03:17;0;0;0
77538;PMS7003;67783;51.656;16.106;2023-03-23T04:06:19;0;0;0
77538;PMS7003;67783;51.656;16.106;2023-03-23T04:09:21;0;0;0
77538;PMS7003;67783;51.656;16.106;2023-03-23T04:12:26;0;0;0
77538;PMS7003;67783;51.656;16.106;2023-03-23T04:15:28;0;0;0
77538;PMS7003;67783;51.656;16.106;2023-03-23T04:18:29;0;0;0
77538;PMS7003;67783;51.656;16.106;2023-03-23T04:21:33;0;0;0
77538;PMS7003;67783;51.656;16.106;2023-03-23T04:24:35;0;0;0
77538;PMS7003;67783;51.656;16.106;2023-03-23T04:27:49;0;0;0
77538;PMS7003;67783;51.656;16.106;2023-03-23T04:30:55;0;0;0
77538;PMS7003;67783;51.656;16.106;2023-03-23T04:33:57;0;0;0
77538;PMS7003;67783;51.656;16.106;2023-03-23T04:37:02;0;0;0
77538;PMS7003;67783;51.656;16.106;2023-03-23T04:40:04;0;0;0
77538;PMS7003;67783;51.656;16.106;2023-03-23T04:43:11;0;0;0
77538;PMS7003;67783;51.656;16.106;2023-03-23T04:46:15;0;0;0
77538;PMS7003;67783;51.656;16.106;2023-03-23T04:49:19;0;0;0
77538;PMS7003;67783;51.656;16.106;2023-03-23T04:52:22;0;0;0
77538;PMS7003;67783;51.656;16.106;2023-03-23T04:55:26;0;0;0
77538;PMS7003;67783;51.656;16.106;2023-03-23T04:58:31;2;0;0
77538;PMS7003;67783;51.656;16.106;2023-03-23T05:01:34;1;0;0
77538;PMS7003;67783;51.656;16.106;2023-03-23T05:04:39;0;0;0
77538;PMS7003;67783;51.656;16.106;2023-03-23T05:07:41;0;0;0
77538;PMS7003;67783;51.656;16.106;2023-03-23T05:10:49;2;0;0
77538;PMS7003;67783;51.656;16.106;2023-03-23T05:13:54;2;1;1
77538;PMS7003;67783;51.656;16.106;2023-03-23T05:16:56;2;2;1
77538;PMS7003;67783;51.656;16.106;2023-03-23T05:19:58;0;0;0
77538;PMS7003;67783;51.656;16.106;2023-03-23T05:23:00;1;0;0
77538;PMS7003;67783;51.656;16.106;2023-03-23T05:26:02;0;0;0
77538;PMS7003;67783;51.656;16.106;2023-03-23T05:29:12;0;0;0
77538;PMS7003;67783;51.656;16.106;2023-03-23T05:32:14;0;0;0
77538;PMS7003;67783;51.656;16.106;2023-03-23T05:35:19;0;0;0
77538;PMS7003;67783;51.656;16.106;2023-03-23T05:38:21;3;0;0
77538;PMS7003;67783;51.656;16.106;2023-03-23T05:41:24;0;0;0
77538;PMS7003;67783;51.656;16.106;2023-03-23T05:44:33;5;1;0
77538;PMS7003;67783;51.656;16.106;2023-03-23T05:47:34;1;0;0
77538;PMS7003;67783;51.656;16.106;2023-03-23T05:50:37;0;0;0
77538;PMS7003;67783;51.656;16.106;2023-03-23T05:53:39;0;0;0
77538;PMS7003;67783;51.656;16.106;2023-03-23T05:56:42;0;0;0
77538;PMS7003;67783;51.656;16.106;2023-03-23T05:59:53;0;0;0
77538;PMS7003;67783;51.656;16.106;2023-03-23T06:02:55;0;0;0
77538;PMS7003;67783;51.656;16.106;2023-03-23T06:05:57;0;0;0
77538;PMS7003;67783;51.656;16.106;2023-03-23T06:08:59;0;0;0
77538;PMS7003;67783;51.656;16.106;2023-03-23T06:12:01;2;0;0
77538;PMS7003;67783;51.656;16.106;2023-03-23T06:15:14;0;0;0
77538;PMS7003;67783;51.656;16.106;2023-03-23T06:18:15;0;0;0
77538;PMS7003;67783;51.656;16.106;2023-03-23T06:21:18;0;0;0
77538;PMS7003;67783;51.656;16.106;2023-03-23T06:24:19;0;0;0
77538;PMS7003;67783;51.656;16.106;2023-03-23T06:27:22;0;0;0
77538;PMS7003;67783;51.656;16.106;2023-03-23T06:30:34;0;0;0
77538;PMS7003;67783;51.656;16.106;2023-03-23T06:33:37;0;0;0
77538;PMS7003;67783;51.656;16.106;2023-03-23T06:36:41;0;0;0
77538;PMS7003;67783;51.656;16.106;2023-03-23T06:39:45;0;0;0
77538;PMS7003;67783;51.656;16.106;2023-03-23T06:42:47;0;0;0
77538;PMS7003;67783;51.656;16.106;2023-03-23T06:45:55;0;0;0
77538;PMS7003;67783;51.656;16.106;2023-03-23T06:49:01;0;0;0
77538;PMS7003;67783;51.656;16.106;2023-03-23T06:52:04;0;0;0
77538;PMS7003;67783;51.656;16.106;2023-03-23T06:55:07;0;0;0
77538;PMS7003;67783;51.656;16.106;2023-03-23T06:58:09;0;0;0
77538;PMS7003;67783;51.656;16.106;2023-03-23T07:01:15;0;0;0
77538;PMS7003;67783;51.656;16.106;2023-03-23T07:04:17;0;0;0
77538;PMS7003;67783;51.656;16.106;2023-03-23T07:07:19;0;0;0
77538;PMS7003;67783;51.656;16.106;2023-03-23T07:10:21;0;0;0
77538;PMS7003;67783;51.656;16.106;2023-03-23T07:13:23;0;0;0
77538;PMS7003;67783;51.656;16.106;2023-03-23T07:16:36;1;1;0
77538;PMS7003;67783;51.656;16.106;2023-03-23T07:19:38;0;0;0
77538;PMS7003;67783;51.656;16.106;2023-03-23T07:22:41;4;0;0
77538;PMS7003;67783;51.656;16.106;2023-03-23T07:25:43;0;0;0
77538;PMS7003;67783;51.656;16.106;2023-03-23T07:28:47;0;0;0
77538;PMS7003;67783;51.656;16.106;2023-03-23T07:31:56;0;0;0
77538;PMS7003;67783;51.656;16.106;2023-03-23T07:34:58;0;0;0
77538;PMS7003;67783;51.656;16.106;2023-03-23T07:38:00;0;0;0
77538;PMS7003;67783;51.656;16.106;2023-03-23T07:41:03;0;0;0
77538;PMS7003;67783;51.656;16.106;2023-03-23T07:44:05;0;0;0
77538;PMS7003;67783;51.656;16.106;2023-03-23T07:47:17;0;0;0
77538;PMS7003;67783;51.656;16.106;2023-03-23T07:50:19;0;0;0
77538;PMS7003;67783;51.656;16.106;2023-03-23T07:53:25;0;0;0
77538;PMS7003;67783;51.656;16.106;2023-03-23T07:56:27;0;0;0
77538;PMS7003;67783;51.656;16.106;2023-03-23T07:59:30;0;0;0
77538;PMS7003;67783;51.656;16.106;2023-03-23T08:02:37;0;0;0
77538;PMS7003;67783;51.656;16.106;2023-03-23T08:05:40;1;1;0
77538;PMS7003;67783;51.656;16.106;2023-03-23T08:08:43;0;0;0
77538;PMS7003;67783;51.656;16.106;2023-03-23T08:11:44;1;1;0
77538;PMS7003;67783;51.656;16.106;2023-03-23T08:14:48;0;0;0
77538;PMS7003;67783;51.656;16.106;2023-03-23T08:17:58;0;0;0
77538;PMS7003;67783;51.656;16.106;2023-03-23T08:21:02;0;0;0
77538;PMS7003;67783;51.656;16.106;2023-03-23T08:24:05;0;0;0
77538;PMS7003;67783;51.656;16.106;2023-03-23T08:27:07;1;0;0
77538;PMS7003;67783;51.656;16.106;2023-03-23T08:30:10;0;0;0
77538;PMS7003;67783;51.656;16.106;2023-03-23T08:33:18;0;0;0
77538;PMS7003;67783;51.656;16.106;2023-03-23T08:36:23;0;0;0
77538;PMS7003;67783;51.656;16.106;2023-03-23T08:39:25;0;0;0
77538;PMS7003;67783;51.656;16.106;2023-03-23T08:42:27;0;0;0
77538;PMS7003;67783;51.656;16.106;2023-03-23T08:45:29;0;0;0
77538;PMS7003;67783;51.656;16.106;2023-03-23T08:48:39;0;0;0
77538;PMS7003;67783;51.656;16.106;2023-03-23T08:51:41;0;0;0
77538;PMS7003;67783;51.656;16.106;2023-03-23T08:54:44;0;0;0
77538;PMS7003;67783;51.656;16.106;2023-03-23T08:57:49;0;0;0
77538;PMS7003;67783;51.656;16.106;2023-03-23T09:00:50;0;0;0
77538;PMS7003;67783;51.656;16.106;2023-03-23T09:03:59;1;1;0
77538;PMS7003;67783;51.656;16.106;2023-03-23T09:07:01;0;0;0
77538;PMS7003;67783;51.656;16.106;2023-03-23T09:10:03;0;0;0
77538;PMS7003;67783;51.656;16.106;2023-03-23T09:13:06;1;1;1
77538;PMS7003;67783;51.656;16.106;2023-03-23T09:16:08;0;0;0
77538;PMS7003;67783;51.656;16.106;2023-03-23T09:19:20;0;0;0
77538;PMS7003;67783;51.656;16.106;2023-03-23T09:22:21;0;0;0
77538;PMS7003;67783;51.656;16.106;2023-03-23T09:25:25;1;0;0
77538;PMS7003;67783;51.656;16.106;2023-03-23T09:28:28;0;0;0
77538;PMS7003;67783;51.656;16.106;2023-03-23T09:31:32;0;0;0
77538;PMS7003;67783;51.656;16.106;2023-03-23T09:34:40;0;0;0
77538;PMS7003;67783;51.656;16.106;2023-03-23T09:37:43;0;0;0
77538;PMS7003;67783;51.656;16.106;2023-03-23T09:40:46;0;0;0
77538;PMS7003;67783;51.656;16.106;2023-03-23T09:50:24;0;0;0
77538;PMS7003;67783;51.656;16.106;2023-03-23T09:53:38;0;0;0
77538;PMS7003;67783;51.656;16.106;2023-03-23T09:56:43;0;0;0
77538;PMS7003;67783;51.656;16.106;2023-03-23T09:59:53;0;0;0
77538;PMS7003;67783;51.656;16.106;2023-03-23T10:06:19;0;0;0
77538;PMS7003;67783;51.656;16.106;2023-03-23T10:09:24;0;0;0
77538;PMS7003;67783;51.656;16.106;2023-03-23T10:15:40;0;0;0
77538;PMS7003;67783;51.656;16.106;2023-03-23T10:18:56;0;0;0
77538;PMS7003;67783;51.656;16.106;2023-03-23T10:22:08;0;0;0
77538;PMS7003;67783;51.656;16.106;2023-03-23T10:25:16;0;0;0
77538;PMS7003;67783;51.656;16.106;2023-03-23T10:28:33;0;0;0
77538;PMS7003;67783;51.656;16.106;2023-03-23T10:31:36;0;0;0
77538;PMS7003;67783;51.656;16.106;2023-03-23T10:34:50;0;0;0
77538;PMS7003;67783;51.656;16.106;2023-03-23T10:38:00;1;1;0
77538;PMS7003;67783;51.656;16.106;2023-03-23T10:41:16;0;0;0
77538;PMS7003;67783;51.656;16.106;2023-03-23T10:44:19;1;0;0
77538;PMS7003;67783;51.656;16.106;2023-03-23T10:47:23;0;0;0
77538;PMS7003;67783;51.656;16.106;2023-03-23T10:50:27;0;0;0
77538;PMS7003;67783;51.656;16.106;2023-03-23T10:53:32;0;0;0
77538;PMS7003;67783;51.656;16.106;2023-03-23T10:56:39;0;0;0
77538;PMS7003;67783;51.656;16.106;2023-03-23T10:59:42;1;0;0
77538;PMS7003;67783;51.656;16.106;2023-03-23T11:06:00;0;0;0
77538;PMS7003;67783;51.656;16.106;2023-03-23T11:09:12;2;0;0
77538;PMS7003;67783;51.656;16.106;2023-03-23T11:12:18;0;0;0
77538;PMS7003;67783;51.656;16.106;2023-03-23T11:18:38;0;0;0
77538;PMS7003;67783;51.656;16.106;2023-03-23T11:21:45;0;0;0
77538;PMS7003;67783;51.656;16.106;2023-03-23T11:24:54;0;0;0
77538;PMS7003;67783;51.656;16.106;2023-03-23T11:27:58;0;0;0
77538;PMS7003;67783;51.656;16.106;2023-03-23T11:31:06;1;0;0
77538;PMS7003;67783;51.656;16.106;2023-03-23T11:40:33;0;0;0
77538;PMS7003;67783;51.656;16.106;2023-03-23T11:43:45;0;0;0
77538;PMS7003;67783;51.656;16.106;2023-03-23T11:53:22;0;0;0
77538;PMS7003;67783;51.656;16.106;2023-03-23T11:59:41;1;0;0
77538;PMS7003;67783;51.656;16.106;2023-03-23T12:12:55;0;0;0
77538;PMS7003;67783;51.656;16.106;2023-03-23T12:15:59;0;0;0
77538;PMS7003;67783;51.656;16.106;2023-03-23T12:22:33;0;0;0
77538;PMS7003;67783;51.656;16.106;2023-03-23T12:25:53;0;0;0
77538;PMS7003;67783;51.656;16.106;2023-03-23T12:42:12;0;0;0
77538;PMS7003;67783;51.656;16.106;2023-03-23T12:45:41;0;0;0
77538;PMS7003;67783;51.656;16.106;2023-03-23T12:48:41;0;0;0
77538;PMS7003;67783;51.656;16.106;2023-03-23T12:55:17;0;0;0
77538;PMS7003;67783;51.656;16.106;2023-03-23T12:58:28;0;0;0
77538;PMS7003;67783;51.656;16.106;2023-03-23T13:01:36;0;0;0
77538;PMS7003;67783;51.656;16.106;2023-03-23T13:04:45;0;0;0
77538;PMS7003;67783;51.656;16.106;2023-03-23T13:07:59;0;0;0
77538;PMS7003;67783;51.656;16.106;2023-03-23T13:11:10;0;0;0
77538;PMS7003;67783;51.656;16.106;2023-03-23T13:24:14;0;0;0
77538;PMS7003;67783;51.656;16.106;2023-03-23T13:27:22;0;0;0
77538;PMS7003;67783;51.656;16.106;2023-03-23T13:30:29;0;0;0
77538;PMS7003;67783;51.656;16.106;2023-03-23T13:33:36;0;0;0
77538;PMS7003;67783;51.656;16.106;2023-03-23T13:36:40;1;0;0
77538;PMS7003;67783;51.656;16.106;2023-03-23T13:43:03;0;0;0
77538;PMS7003;67783;51.656;16.106;2023-03-23T13:46:08;0;0;0
77538;PMS7003;67783;51.656;16.106;2023-03-23T13:49:20;0;0;0
77538;PMS7003;67783;51.656;16.106;2023-03-23T13:55:47;0;0;0
77538;PMS7003;67783;51.656;16.106;2023-03-23T13:58:52;0;0;0
77538;PMS7003;67783;51.656;16.106;2023-03-23T14:15:03;0;0;0
77538;PMS7003;67783;51.656;16.106;2023-03-23T14:18:11;0;0;0
77538;PMS7003;67783;51.656;16.106;2023-03-23T14:21:21;0;0;0
77538;PMS7003;67783;51.656;16.106;2023-03-23T14:24:30;0;0;0
77538;PMS7003;67783;51.656;16.106;2023-03-23T14:27:34;0;0;0
77538;PMS7003;67783;51.656;16.106;2023-03-23T14:30:36;0;0;0
77538;PMS7003;67783;51.656;16.106;2023-03-23T14:33:38;0;0;0
77538;PMS7003;67783;51.656;16.106;2023-03-23T14:36:42;0;0;0
77538;PMS7003;67783;51.656;16.106;2023-03-23T14:39:51;0;0;0
77538;PMS7003;67783;51.656;16.106;2023-03-23T14:42:55;0;0;0
77538;PMS7003;67783;51.656;16.106;2023-03-23T14:45:58;0;0;0
77538;PMS7003;67783;51.656;16.106;2023-03-23T14:49:03;0;0;0
77538;PMS7003;67783;51.656;16.106;2023-03-23T14:52:11;0;0;0
77538;PMS7003;67783;51.656;16.106;2023-03-23T14:55:17;0;0;0
77538;PMS7003;67783;51.656;16.106;2023-03-23T14:58:22;0;0;0
77538;PMS7003;67783;51.656;16.106;2023-03-23T15:01:28;0;0;0
77538;PMS7003;67783;51.656;16.106;2023-03-23T15:04:38;0;0;0
77538;PMS7003;67783;51.656;16.106;2023-03-23T15:07:42;0;0;0
77538;PMS7003;67783;51.656;16.106;2023-03-23T15:10:51;0;0;0
77538;PMS7003;67783;51.656;16.106;2023-03-23T15:14:24;0;0;0
77538;PMS7003;67783;51.656;16.106;2023-03-23T15:17:24;0;0;0
77538;PMS7003;67783;51.656;16.106;2023-03-23T15:23:45;0;0;0
77538;PMS7003;67783;51.656;16.106;2023-03-23T15:26:47;0;0;0
77538;PMS7003;67783;51.656;16.106;2023-03-23T15:36:15;1;1;0
77538;PMS7003;67783;51.656;16.106;2023-03-23T15:39:18;0;0;0
77538;PMS7003;67783;51.656;16.106;2023-03-23T15:42:30;0;0;0
77538;PMS7003;67783;51.656;16.106;2023-03-23T15:45:33;0;0;0
77538;PMS7003;67783;51.656;16.106;2023-03-23T15:51:55;1;1;1
77538;PMS7003;67783;51.656;16.106;2023-03-23T15:54:57;0;0;0
77538;PMS7003;67783;51.656;16.106;2023-03-23T15:57:59;0;0;0
77538;PMS7003;67783;51.656;16.106;2023-03-23T16:01:03;0;0;0
77538;PMS7003;67783;51.656;16.106;2023-03-23T16:04:09;0;0;0
77538;PMS7003;67783;51.656;16.106;2023-03-23T16:07:16;0;0;0
77538;PMS7003;67783;51.656;16.106;2023-03-23T16:10:22;0;0;0
77538;PMS7003;67783;51.656;16.106;2023-03-23T16:13:26;0;0;0
77538;PMS7003;67783;51.656;16.106;2023-03-23T16:19:37;0;0;0
77538;PMS7003;67783;51.656;16.106;2023-03-23T16:22:42;0;0;0
77538;PMS7003;67783;51.656;16.106;2023-03-23T16:25:44;0;0;0
77538;PMS7003;67783;51.656;16.106;2023-03-23T16:28:46;0;0;0
77538;PMS7003;67783;51.656;16.106;2023-03-23T16:31:47;1;0;0
77538;PMS7003;67783;51.656;16.106;2023-03-23T16:34:49;0;0;0
77538;PMS7003;67783;51.656;16.106;2023-03-23T16:37:51;1;1;1
77538;PMS7003;67783;51.656;16.106;2023-03-23T16:40:55;1;1;0
77538;PMS7003;67783;51.656;16.106;2023-03-23T16:44:00;1;1;1
77538;PMS7003;67783;51.656;16.106;2023-03-23T16:47:01;2;1;1
77538;PMS7003;67783;51.656;16.106;2023-03-23T16:50:03;1;1;1
77538;PMS7003;67783;51.656;16.106;2023-03-23T16:53:07;1;1;0
77538;PMS7003;67783;51.656;16.106;2023-03-23T16:57:38;4;4;3
77538;PMS7003;67783;51.656;16.106;2023-03-23T17:00:40;4;3;2
77538;PMS7003;67783;51.656;16.106;2023-03-23T17:03:43;2;1;1
77538;PMS7003;67783;51.656;16.106;2023-03-23T17:06:44;1;1;1
77538;PMS7003;67783;51.656;16.106;2023-03-23T17:09:46;1;1;1
77538;PMS7003;67783;51.656;16.106;2023-03-23T17:12:48;0;0;0
77538;PMS7003;67783;51.656;16.106;2023-03-23T17:15:54;1;1;1
77538;PMS7003;67783;51.656;16.106;2023-03-23T17:18:57;1;0;0
77538;PMS7003;67783;51.656;16.106;2023-03-23T17:21:58;1;0;0
77538;PMS7003;67783;51.656;16.106;2023-03-23T17:25:00;3;3;1
77538;PMS7003;67783;51.656;16.106;2023-03-23T17:28:03;2;1;1
77538;PMS7003;67783;51.656;16.106;2023-03-23T17:31:14;4;3;1
77538;PMS7003;67783;51.656;16.106;2023-03-23T17:34:16;2;2;1
77538;PMS7003;67783;51.656;16.106;2023-03-23T17:37:18;11;4;3
77538;PMS7003;67783;51.656;16.106;2023-03-23T17:40:21;5;4;2
77538;PMS7003;67783;51.656;16.106;2023-03-23T17:43:23;6;2;1
77538;PMS7003;67783;51.656;16.106;2023-03-23T17:46:34;2;2;2
77538;PMS7003;67783;51.656;16.106;2023-03-23T17:49:36;4;2;2
77538;PMS7003;67783;51.656;16.106;2023-03-23T17:52:38;4;3;2
77538;PMS7003;67783;51.656;16.106;2023-03-23T17:55:42;6;6;4
77538;PMS7003;67783;51.656;16.106;2023-03-23T17:58:45;6;6;4
77538;PMS7003;67783;51.656;16.106;2023-03-23T18:01:55;8;4;3
77538;PMS7003;67783;51.656;16.106;2023-03-23T18:04:57;4;4;2
77538;PMS7003;67783;51.656;16.106;2023-03-23T18:07:59;9;6;5
77538;PMS7003;67783;51.656;16.106;2023-03-23T18:11:01;10;7;5
77538;PMS7003;67783;51.656;16.106;2023-03-23T18:14:03;9;5;4
77538;PMS7003;67783;51.656;16.106;2023-03-23T18:17:15;9;6;5
77538;PMS7003;67783;51.656;16.106;2023-03-23T18:20:18;7;4;3
77538;PMS7003;67783;51.656;16.106;2023-03-23T18:23:21;5;3;3
77538;PMS7003;67783;51.656;16.106;2023-03-23T18:26:23;4;3;2
77538;PMS7003;67783;51.656;16.106;2023-03-23T18:29:25;2;2;1
77538;PMS7003;67783;51.656;16.106;2023-03-23T18:32:36;3;2;2
77538;PMS7003;67783;51.656;16.106;2023-03-23T18:35:39;3;2;1
77538;PMS7003;67783;51.656;16.106;2023-03-23T18:38:41;2;2;1
77538;PMS7003;67783;51.656;16.106;2023-03-23T18:41:45;2;2;1
77538;PMS7003;67783;51.656;16.106;2023-03-23T18:44:47;3;3;3
77538;PMS7003;67783;51.656;16.106;2023-03-23T18:47:56;4;2;2
77538;PMS7003;67783;51.656;16.106;2023-03-23T18:50:58;2;2;2
77538;PMS7003;67783;51.656;16.106;2023-03-23T18:54:01;2;2;1
77538;PMS7003;67783;51.656;16.106;2023-03-23T18:57:02;0;0;0
77538;PMS7003;67783;51.656;16.106;2023-03-23T19:00:05;1;1;1
77538;PMS7003;67783;51.656;16.106;2023-03-23T19:03:17;1;1;1
77538;PMS7003;67783;51.656;16.106;2023-03-23T19:06:20;0;0;0
77538;PMS7003;67783;51.656;16.106;2023-03-23T19:09:24;1;1;1
77538;PMS7003;67783;51.656;16.106;2023-03-23T19:12:27;4;1;1
77538;PMS7003;67783;51.656;16.106;2023-03-23T19:15:29;4;2;1
77538;PMS7003;67783;51.656;16.106;2023-03-23T19:18:38;5;3;2
77538;PMS7003;67783;51.656;16.106;2023-03-23T19:21:39;3;2;1
77538;PMS7003;67783;51.656;16.106;2023-03-23T19:24:43;1;1;1
77538;PMS7003;67783;51.656;16.106;2023-03-23T19:27:46;4;2;1
77538;PMS7003;67783;51.656;16.106;2023-03-23T19:30:51;2;2;1
77538;PMS7003;67783;51.656;16.106;2023-03-23T19:33:58;1;1;1
77538;PMS7003;67783;51.656;16.106;2023-03-23T19:37:01;4;3;1
77538;PMS7003;67783;51.656;16.106;2023-03-23T19:40:04;1;1;1
77538;PMS7003;67783;51.656;16.106;2023-03-23T19:43:09;1;1;0
77538;PMS7003;67783;51.656;16.106;2023-03-23T19:46:11;0;0;0
77538;PMS7003;67783;51.656;16.106;2023-03-23T19:49:19;4;2;2
77538;PMS7003;67783;51.656;16.106;2023-03-23T19:52:21;2;2;1
77538;PMS7003;67783;51.656;16.106;2023-03-23T19:55:23;4;2;1
77538;PMS7003;67783;51.656;16.106;2023-03-23T19:58:25;3;2;2
77538;PMS7003;67783;51.656;16.106;2023-03-23T20:01:28;1;1;0
77538;PMS7003;67783;51.656;16.106;2023-03-23T20:04:39;1;1;1
77538;PMS7003;67783;51.656;16.106;2023-03-23T20:07:43;1;1;1
77538;PMS7003;67783;51.656;16.106;2023-03-23T20:10:44;0;0;0
77538;PMS7003;67783;51.656;16.106;2023-03-23T20:13:47;0;0;0
77538;PMS7003;67783;51.656;16.106;2023-03-23T20:16:49;0;0;0
77538;PMS7003;67783;51.656;16.106;2023-03-23T20:20:00;0;0;0
77538;PMS7003;67783;51.656;16.106;2023-03-23T20:23:04;2;0;0
77538;PMS7003;67783;51.656;16.106;2023-03-23T20:26:12;0;0;0
77538;PMS7003;67783;51.656;16.106;2023-03-23T20:29:26;1;1;0
77538;PMS7003;67783;51.656;16.106;2023-03-23T20:32:31;2;2;2
77538;PMS7003;67783;51.656;16.106;2023-03-23T20:35:33;2;2;1
77538;PMS7003;67783;51.656;16.106;2023-03-23T20:38:34;2;1;1
77538;PMS7003;67783;51.656;16.106;2023-03-23T20:41:38;1;1;1
77538;PMS7003;67783;51.656;16.106;2023-03-23T20:44:47;2;2;1
77538;PMS7003;67783;51.656;16.106;2023-03-23T20:47:49;1;1;0
77538;PMS7003;67783;51.656;16.106;2023-03-23T20:50:53;1;1;1
77538;PMS7003;67783;51.656;16.106;2023-03-23T20:53:55;1;1;0
77538;PMS7003;67783;51.656;16.106;2023-03-23T20:56:57;7;2;1
77538;PMS7003;67783;51.656;16.106;2023-03-23T21:00:08;1;1;0
77538;PMS7003;67783;51.656;16.106;2023-03-23T21:03:17;4;1;1
77538;PMS7003;67783;51.656;16.106;2023-03-23T21:06:19;3;1;1
77538;PMS7003;67783;51.656;16.106;2023-03-23T21:09:22;1;1;0
77538;PMS7003;67783;51.656;16.106;2023-03-23T21:12:25;1;1;1
77538;PMS7003;67783;51.656;16.106;2023-03-23T21:15:29;0;0;0
77538;PMS7003;67783;51.656;16.106;2023-03-23T21:18:33;0;0;0
77538;PMS7003;67783;51.656;16.106;2023-03-23T21:21:35;1;0;0
77538;PMS7003;67783;51.656;16.106;2023-03-23T21:24:36;0;0;0
77538;PMS7003;67783;51.656;16.106;2023-03-23T21:27:38;1;0;0
77538;PMS7003;67783;51.656;16.106;2023-03-23T21:30:50;0;0;0
77538;PMS7003;67783;51.656;16.106;2023-03-23T21:33:54;0;0;0
77538;PMS7003;67783;51.656;16.106;2023-03-23T21:36:56;1;1;1
77538;PMS7003;67783;51.656;16.106;2023-03-23T21:39:58;1;0;0
77538;PMS7003;67783;51.656;16.106;2023-03-23T21:42:59;0;0;0
77538;PMS7003;67783;51.656;16.106;2023-03-23T21:46:11;1;1;0
77538;PMS7003;67783;51.656;16.106;2023-03-23T21:49:18;1;1;1
77538;PMS7003;67783;51.656;16.106;2023-03-23T21:52:20;1;1;1
77538;PMS7003;67783;51.656;16.106;2023-03-23T21:55:21;0;0;0
77538;PMS7003;67783;51.656;16.106;2023-03-23T21:58:29;1;1;0
77538;PMS7003;67783;51.656;16.106;2023-03-23T22:01:34;0;0;0
77538;PMS7003;67783;51.656;16.106;2023-03-23T22:04:36;0;0;0
77538;PMS7003;67783;51.656;16.106;2023-03-23T22:07:38;0;0;0
77538;PMS7003;67783;51.656;16.106;2023-03-23T22:10:41;0;0;0
77538;PMS7003;67783;51.656;16.106;2023-03-23T22:13:44;0;0;0
77538;PMS7003;67783;51.656;16.106;2023-03-23T22:16:54;0;0;0
77538;PMS7003;67783;51.656;16.106;2023-03-23T22:19:56;0;0;0
77538;PMS7003;67783;51.656;16.106;2023-03-23T22:22:58;0;0;0
77538;PMS7003;67783;51.656;16.106;2023-03-23T22:26:00;0;0;0
77538;PMS7003;67783;51.656;16.106;2023-03-23T22:29:02;0;0;0
77538;PMS7003;67783;51.656;16.106;2023-03-23T22:32:15;0;0;0
77538;PMS7003;67783;51.656;16.106;2023-03-23T22:35:16;1;1;0
77538;PMS7003;67783;51.656;16.106;2023-03-23T22:38:18;0;0;0
77538;PMS7003;67783;51.656;16.106;2023-03-23T22:41:21;0;0;0
77538;PMS7003;67783;51.656;16.106;2023-03-23T22:44:25;1;0;0
77538;PMS7003;67783;51.656;16.106;2023-03-23T22:47:35;0;0;0
77538;PMS7003;67783;51.656;16.106;2023-03-23T22:50:38;1;1;1
77538;PMS7003;67783;51.656;16.106;2023-03-23T22:53:40;0;0;0